Wetterdaten: Woche 14.03.11 - 20.03.11 (KW11)
Datum Zeit Temp. A. Feuchte A. Luftdruck Regen Wind Richtung Taupunkt Windchill Windben
14.03.2011 00:00 10,6 C 60 % 1010,8 hPa 0,0 l/m 2,7 km/h O-SO 3,1 C 10,6 C 9,6 km/h
14.03.2011 01:00 11,1 C 59 % 1010,8 hPa 0,0 l/m 8,1 km/h S-SO 3,3 C 9,9 C 20,5 km/h
14.03.2011 02:00 11,1 C 59 % 1011,0 hPa 0,0 l/m 5,7 km/h S-SO 3,4 C 11,0 C 18,1 km/h
14.03.2011 03:00 10,2 C 61 % 1011,5 hPa 0,0 l/m 0,9 km/h N 3,0 C 10,2 C 6,8 km/h
14.03.2011 04:00 9,3 C 66 % 1012,0 hPa 0,0 l/m 0,9 km/h S-SO 3,2 C 9,3 C 5,2 km/h
14.03.2011 05:00 8,7 C 67 % 1012,3 hPa 0,0 l/m 0,4 km/h N 2,8 C 8,7 C 4,0 km/h
14.03.2011 06:00 9,0 C 69 % 1012,7 hPa 0,0 l/m 0,2 km/h S-SW 3,7 C 9,0 C 2,8 km/h
14.03.2011 07:00 10,1 C 68 % 1012,8 hPa 0,0 l/m 1,8 km/h S 4,4 C 10,1 C 11,8 km/h
14.03.2011 08:00 11,8 C 63 % 1013,4 hPa 0,0 l/m 2,4 km/h S-SO 4,9 C 11,8 C 12,1 km/h
14.03.2011 09:00 14,3 C 57 % 1013,7 hPa 0,0 l/m 3,2 km/h S 5,7 C 14,3 C 11,3 km/h
14.03.2011 10:00 17,3 C 47 % 1013,9 hPa 0,0 l/m 2,7 km/h O 5,9 C 17,3 C 9,1 km/h
14.03.2011 11:00 19,3 C 39 % 1014,3 hPa 0,0 l/m 6,3 km/h NW 5,0 C 18,8 C 15,7 km/h
14.03.2011 12:00 19,9 C 34 % 1014,5 hPa 0,0 l/m 7,6 km/h NW 3,5 C 19,4 C 17,3 km/h
14.03.2011 13:00 19,3 C 34 % 1014,5 hPa 0,0 l/m 6,2 km/h W-SW 2,8 C 19,1 C 16,1 km/h
14.03.2011 14:00 18,7 C 35 % 1014,9 hPa 0,0 l/m 4,8 km/h W 2,9 C 18,7 C 15,3 km/h
14.03.2011 15:00 17,6 C 38 % 1015,4 hPa 0,0 l/m 4,8 km/h W 3,2 C 17,6 C 11,3 km/h
14.03.2011 16:00 16,6 C 41 % 1015,8 hPa 0,0 l/m 3,1 km/h NW 3,4 C 16,6 C 9,3 km/h
14.03.2011 17:00 15,9 C 45 % 1016,1 hPa 0,0 l/m 1,4 km/h N 3,9 C 15,9 C 5,2 km/h
14.03.2011 18:00 14,5 C 49 % 1016,7 hPa 0,0 l/m 0,0 km/h N 3,8 C 14,5 C 0,4 km/h
14.03.2011 19:00 11,3 C 56 % 1017,0 hPa 0,0 l/m 0,0 km/h N 2,7 C 11,3 C 0,0 km/h
14.03.2011 20:00 9,0 C 64 % 1017,3 hPa 0,0 l/m 0,1 km/h N 2,5 C 9,0 C 2,0 km/h
14.03.2011 21:00 8,3 C 67 % 1017,3 hPa 0,0 l/m 0,1 km/h N 2,5 C 8,3 C 2,0 km/h
14.03.2011 22:00 7,8 C 68 % 1017,4 hPa 0,0 l/m 0,3 km/h N 2,2 C 7,8 C 3,2 km/h
14.03.2011 23:00 7,1 C 71 % 1017,5 hPa 0,0 l/m 0,5 km/h N 2,3 C 7,1 C 4,4 km/h
15.03.2011 00:00 6,4 C 73 % 1017,5 hPa 0,0 l/m 0,4 km/h N 1,8 C 6,4 C 3,6 km/h
15.03.2011 01:00 5,8 C 75 % 1017,9 hPa 0,0 l/m 0,3 km/h N 1,8 C 5,8 C 4,0 km/h
15.03.2011 02:00 5,0 C 77 % 1018,1 hPa 0,0 l/m 0,2 km/h N 1,3 C 5,0 C 2,4 km/h
15.03.2011 03:00 3,7 C 79 % 1018,2 hPa 0,0 l/m 0,1 km/h N 0,3 C 3,7 C 2,4 km/h
15.03.2011 04:00 3,1 C 81 % 1018,4 hPa 0,0 l/m 0,2 km/h N 0,2 C 3,1 C 3,2 km/h
15.03.2011 05:00 3,4 C 83 % 1018,6 hPa 0,0 l/m 0,5 km/h SW 0,8 C 3,4 C 4,4 km/h
15.03.2011 06:00 3,0 C 82 % 1018,7 hPa 0,0 l/m 0,1 km/h N 0,3 C 3,0 C 2,0 km/h
15.03.2011 07:00 4,0 C 83 % 1018,9 hPa 0,0 l/m 0,2 km/h N 1,4 C 4,0 C 2,8 km/h
15.03.2011 08:00 6,7 C 80 % 1019,1 hPa 0,0 l/m 0,4 km/h S-SO 3,5 C 6,7 C 3,2 km/h
15.03.2011 09:00 9,8 C 70 % 1019,0 hPa 0,0 l/m 2,0 km/h O 4,5 C 9,8 C 5,6 km/h
15.03.2011 10:00 11,6 C 67 % 1018,7 hPa 0,0 l/m 1,9 km/h O-NO 5,6 C 11,6 C 6,0 km/h
15.03.2011 11:00 13,4 C 62 % 1018,1 hPa 0,0 l/m 2,9 km/h O 6,3 C 13,4 C 7,6 km/h
15.03.2011 12:00 15,4 C 57 % 1017,4 hPa 0,0 l/m 3,9 km/h O 6,9 C 15,4 C 11,3 km/h
15.03.2011 13:00 16,5 C 57 % 1016,6 hPa 0,0 l/m 4,6 km/h O-SO 7,8 C 16,5 C 11,3 km/h
15.03.2011 14:00 17,1 C 52 % 1015,8 hPa 0,0 l/m 5,6 km/h O 7,1 C 17,0 C 14,5 km/h
15.03.2011 15:00 18,0 C 50 % 1015,1 hPa 0,0 l/m 4,1 km/h O-SO 7,4 C 18,0 C 11,3 km/h
15.03.2011 16:00 18,6 C 50 % 1014,4 hPa 0,0 l/m 3,7 km/h O-NO 7,9 C 18,6 C 10,1 km/h
15.03.2011 17:00 17,9 C 52 % 1014,5 hPa 0,0 l/m 6,1 km/h O-NO 7,9 C 17,8 C 12,9 km/h
15.03.2011 18:00 16,2 C 55 % 1014,8 hPa 0,0 l/m 1,8 km/h S 7,0 C 16,2 C 8,1 km/h
15.03.2011 19:00 15,2 C 58 % 1015,0 hPa 0,0 l/m 1,4 km/h S 7,0 C 15,2 C 7,6 km/h
15.03.2011 20:00 14,1 C 62 % 1015,2 hPa 0,0 l/m 1,0 km/h S 6,8 C 14,1 C 7,3 km/h
15.03.2011 21:00 12,9 C 65 % 1015,3 hPa 0,0 l/m 0,9 km/h S 6,4 C 12,9 C 4,0 km/h
15.03.2011 22:00 12,0 C 68 % 1015,2 hPa 0,0 l/m 0,5 km/h S-SO 6,1 C 12,0 C 5,6 km/h
15.03.2011 23:00 11,6 C 70 % 1014,8 hPa 0,0 l/m 2,3 km/h S-SO 6,3 C 11,6 C 8,1 km/h
16.03.2011 00:00 11,5 C 71 % 1014,4 hPa 0,0 l/m 2,0 km/h S-SO 6,3 C 11,5 C 7,2 km/h
16.03.2011 01:00 11,1 C 71 % 1014,4 hPa 0,0 l/m 0,6 km/h N 6,0 C 11,1 C 3,2 km/h
16.03.2011 02:00 9,3 C 74 % 1014,4 hPa 0,0 l/m 0,1 km/h O 4,8 C 9,3 C 2,4 km/h
16.03.2011 03:00 8,1 C 80 % 1014,2 hPa 0,0 l/m 1,2 km/h O 4,9 C 8,1 C 4,8 km/h
16.03.2011 04:00 6,5 C 80 % 1014,1 hPa 0,0 l/m 0,0 km/h N 3,3 C 6,5 C 0,4 km/h
16.03.2011 05:00 5,1 C 82 % 1014,4 hPa 0,0 l/m 0,0 km/h N 2,3 C 5,1 C 0,8 km/h
16.03.2011 06:00 4,9 C 83 % 1014,8 hPa 0,0 l/m 0,0 km/h N 2,3 C 4,9 C 1,2 km/h
16.03.2011 07:00 5,7 C 83 % 1014,8 hPa 0,0 l/m 0,0 km/h N 3,0 C 5,7 C 0,0 km/h
16.03.2011 08:00 7,9 C 82 % 1014,3 hPa 0,0 l/m 0,6 km/h O 5,0 C 7,9 C 3,6 km/h
16.03.2011 09:00 10,1 C 80 % 1013,8 hPa 0,0 l/m 3,3 km/h O 6,8 C 10,1 C 10,1 km/h
16.03.2011 10:00 11,2 C 75 % 1013,2 hPa 0,0 l/m 3,3 km/h O 6,9 C 11,2 C 9,7 km/h
16.03.2011 11:00 11,8 C 72 % 1012,7 hPa 0,0 l/m 2,7 km/h SO 7,0 C 11,8 C 10,9 km/h
16.03.2011 12:00 12,3 C 73 % 1012,8 hPa 0,3 l/m 3,0 km/h O-SO 7,5 C 12,3 C 10,5 km/h
16.03.2011 13:00 11,3 C 81 % 1012,3 hPa 0,5 l/m 1,9 km/h O 8,1 C 11,3 C 7,6 km/h
16.03.2011 14:00 11,1 C 81 % 1012,0 hPa 0,0 l/m 2,7 km/h O-SO 8,0 C 11,1 C 10,5 km/h
16.03.2011 15:00 11,2 C 78 % 1011,8 hPa 0,0 l/m 3,6 km/h O 7,5 C 11,2 C 11,7 km/h
16.03.2011 16:00 11,5 C 77 % 1011,0 hPa 0,0 l/m 2,4 km/h S-SO 7,6 C 11,5 C 8,0 km/h
16.03.2011 17:00 11,4 C 77 % 1010,6 hPa 0,0 l/m 2,1 km/h S-SO 7,4 C 11,4 C 10,5 km/h
16.03.2011 18:00 10,9 C 79 % 1010,3 hPa 0,0 l/m 3,5 km/h S-SO 7,3 C 10,9 C 16,1 km/h
16.03.2011 19:00 10,5 C 82 % 1010,1 hPa 0,0 l/m 1,9 km/h S-SW 7,4 C 10,5 C 7,7 km/h
16.03.2011 20:00 10,1 C 82 % 1009,7 hPa 0,0 l/m 0,0 km/h N 7,2 C 10,1 C 1,2 km/h
16.03.2011 21:00 9,8 C 83 % 1009,1 hPa 0,0 l/m 0,0 km/h N 7,1 C 9,8 C 1,6 km/h
16.03.2011 22:00 9,8 C 83 % 1008,3 hPa 0,0 l/m 0,2 km/h N 7,1 C 9,8 C 2,4 km/h
16.03.2011 23:00 9,9 C 83 % 1007,5 hPa 0,3 l/m 0,3 km/h N 7,2 C 9,9 C 3,6 km/h
17.03.2011 00:00 10,1 C 82 % 1006,2 hPa 0,8 l/m 1,4 km/h O 7,2 C 10,1 C 6,0 km/h
17.03.2011 01:00 10,1 C 82 % 1005,8 hPa 1,6 l/m 0,4 km/h N 7,2 C 10,1 C 3,2 km/h
17.03.2011 02:00 10,1 C 81 % 1005,0 hPa 1,0 l/m 0,8 km/h O 7,0 C 10,1 C 4,4 km/h
17.03.2011 03:00 10,2 C 81 % 1004,5 hPa 1,0 l/m 0,2 km/h O-SO 7,1 C 10,2 C 3,6 km/h
17.03.2011 04:00 10,2 C 81 % 1003,7 hPa 0,5 l/m 0,8 km/h N 7,0 C 10,2 C 4,4 km/h
17.03.2011 05:00 10,2 C 80 % 1003,2 hPa 0,0 l/m 1,3 km/h O-SO 6,9 C 10,2 C 5,6 km/h
17.03.2011 06:00 10,3 C 80 % 1002,6 hPa 0,0 l/m 2,6 km/h SO 7,0 C 10,3 C 7,6 km/h
17.03.2011 07:00 10,4 C 80 % 1002,2 hPa 0,0 l/m 1,6 km/h O 7,1 C 10,4 C 6,4 km/h
17.03.2011 08:00 10,7 C 80 % 1001,9 hPa 0,5 l/m 3,8 km/h O 7,3 C 10,7 C 8,9 km/h
17.03.2011 09:00 10,8 C 79 % 1001,5 hPa 0,0 l/m 0,9 km/h O-SO 7,4 C 10,8 C 4,8 km/h
17.03.2011 10:00 10,9 C 80 % 1001,3 hPa 0,5 l/m 3,4 km/h O 7,6 C 10,9 C 10,1 km/h
17.03.2011 11:00 11,0 C 80 % 1001,0 hPa 0,0 l/m 4,3 km/h O 7,7 C 11,0 C 13,3 km/h
17.03.2011 12:00 11,2 C 80 % 1000,8 hPa 0,0 l/m 3,3 km/h O-SO 7,9 C 11,2 C 12,9 km/h
17.03.2011 13:00 11,8 C 81 % 1000,4 hPa 0,0 l/m 3,0 km/h O 8,6 C 11,8 C 8,4 km/h
17.03.2011 14:00 12,8 C 83 % 1000,2 hPa 0,0 l/m 4,1 km/h O 9,9 C 12,8 C 10,9 km/h
17.03.2011 15:00 12,8 C 83 % 1000,2 hPa 0,0 l/m 1,0 km/h N 10,0 C 12,8 C 5,6 km/h
17.03.2011 16:00 12,6 C 83 % 1000,7 hPa 1,8 l/m 1,4 km/h S 9,8 C 12,6 C 6,4 km/h
17.03.2011 17:00 11,5 C 83 % 1001,4 hPa 2,1 l/m 2,8 km/h SO 8,7 C 11,5 C 11,6 km/h
17.03.2011 18:00 10,8 C 83 % 1002,0 hPa 2,3 l/m 7,3 km/h W 8,0 C 10,2 C 22,1 km/h
17.03.2011 19:00 10,3 C 83 % 1002,8 hPa 2,3 l/m 6,8 km/h SW 7,6 C 9,9 C 20,5 km/h
17.03.2011 20:00 9,9 C 83 % 1003,4 hPa 0,5 l/m 7,9 km/h W 7,2 C 8,8 C 24,5 km/h
17.03.2011 21:00 9,9 C 80 % 1004,0 hPa 0,0 l/m 5,5 km/h W 6,6 C 9,7 C 19,7 km/h
17.03.2011 22:00 10,1 C 78 % 1004,8 hPa 0,0 l/m 4,5 km/h SW 6,4 C 10,1 C 15,3 km/h
17.03.2011 23:00 10,4 C 75 % 1004,9 hPa 0,3 l/m 9,8 km/h W-SW 6,2 C 8,3 C 28,6 km/h
18.03.2011 00:00 9,9 C 76 % 1005,2 hPa 0,3 l/m 11,0 km/h W 5,9 C 6,9 C 29,8 km/h
18.03.2011 01:00 8,9 C 78 % 1005,7 hPa 0,5 l/m 13,6 km/h SW 5,2 C 4,4 C 36,2 km/h
18.03.2011 02:00 8,3 C 77 % 1006,0 hPa 0,3 l/m 15,9 km/h SW 4,5 C 2,7 C 35,8 km/h
18.03.2011 03:00 7,8 C 78 % 1006,4 hPa 0,8 l/m 17,5 km/h W 4,1 C 1,4 C 39,4 km/h
18.03.2011 04:00 7,2 C 79 % 1006,9 hPa 0,3 l/m 17,6 km/h W 3,8 C 0,6 C 39,8 km/h
18.03.2011 05:00 6,7 C 81 % 1007,8 hPa 0,8 l/m 17,5 km/h W 3,6 C 0,0 C 45,5 km/h
18.03.2011 06:00 6,7 C 80 % 1009,0 hPa 0,5 l/m 16,7 km/h W-SW 3,5 C 0,4 C 39,8 km/h
18.03.2011 07:00 6,4 C 80 % 1010,2 hPa 0,0 l/m 15,5 km/h W 3,2 C 0,6 C 38,2 km/h
18.03.2011 08:00 6,0 C 80 % 1011,6 hPa 0,0 l/m 16,3 km/h W-NW 2,7 C -0,3 C 41,0 km/h
18.03.2011 09:00 5,4 C 81 % 1012,9 hPa 1,3 l/m 14,9 km/h W-NW 2,4 C -0,3 C 37,4 km/h
18.03.2011 10:00 5,0 C 82 % 1014,0 hPa 0,5 l/m 12,0 km/h W 2,2 C 0,8 C 32,2 km/h
18.03.2011 11:00 4,6 C 83 % 1014,8 hPa 0,5 l/m 12,1 km/h NW 2,0 C 0,3 C 29,8 km/h
18.03.2011 12:00 4,8 C 83 % 1015,0 hPa 0,8 l/m 11,9 km/h W-NW 2,2 C 0,6 C 29,8 km/h
18.03.2011 13:00 5,0 C 83 % 1015,3 hPa 0,5 l/m 13,2 km/h W-NW 2,4 C 0,1 C 29,0 km/h
18.03.2011 14:00 5,0 C 84 % 1015,7 hPa 0,8 l/m 12,7 km/h NW 2,5 C 0,4 C 31,4 km/h
18.03.2011 15:00 4,9 C 84 % 1016,5 hPa 1,0 l/m 13,1 km/h N-NW 2,4 C -0,1 C 27,8 km/h
18.03.2011 16:00 5,1 C 84 % 1017,0 hPa 0,5 l/m 13,7 km/h NW 2,7 C -0,0 C 29,8 km/h
18.03.2011 17:00 4,7 C 84 % 1017,8 hPa 1,0 l/m 12,1 km/h NW 2,2 C 0,4 C 33,0 km/h
18.03.2011 18:00 4,3 C 84 % 1018,7 hPa 1,3 l/m 9,7 km/h NW 1,8 C 1,5 C 24,1 km/h
18.03.2011 19:00 4,2 C 84 % 1019,5 hPa 1,6 l/m 12,1 km/h NW 1,7 C -0,2 C 28,2 km/h
18.03.2011 20:00 4,4 C 84 % 1019,8 hPa 1,6 l/m 11,3 km/h NW 2,0 C 0,6 C 26,5 km/h
18.03.2011 21:00 4,4 C 84 % 1020,2 hPa 1,3 l/m 12,1 km/h N-NW 2,0 C 0,1 C 29,0 km/h
18.03.2011 22:00 4,6 C 84 % 1020,5 hPa 0,5 l/m 11,3 km/h NW 2,2 C 0,8 C 28,1 km/h
18.03.2011 23:00 4,9 C 84 % 1020,5 hPa 0,3 l/m 8,9 km/h NW 2,4 C 2,8 C 23,3 km/h
19.03.2011 00:00 5,0 C 84 % 1020,7 hPa 0,0 l/m 8,9 km/h NW 2,5 C 2,9 C 24,1 km/h
19.03.2011 01:00 5,1 C 82 % 1020,9 hPa 0,0 l/m 9,6 km/h W 2,3 C 2,6 C 21,7 km/h
19.03.2011 02:00 5,0 C 81 % 1021,0 hPa 0,0 l/m 12,8 km/h N-NW 2,0 C 0,3 C 26,6 km/h
19.03.2011 03:00 4,8 C 79 % 1021,0 hPa 0,0 l/m 13,1 km/h N-NW 1,5 C -0,1 C 28,2 km/h
19.03.2011 04:00 4,7 C 78 % 1021,5 hPa 0,0 l/m 11,4 km/h NW 1,2 C 0,8 C 22,5 km/h
19.03.2011 05:00 4,4 C 77 % 1022,2 hPa 0,0 l/m 11,6 km/h NW 0,8 C 0,4 C 24,9 km/h
19.03.2011 06:00 4,3 C 77 % 1022,9 hPa 0,0 l/m 8,7 km/h NW 0,7 C 2,4 C 20,1 km/h
19.03.2011 07:00 4,2 C 79 % 1023,4 hPa 0,0 l/m 7,3 km/h W-NW 0,8 C 3,4 C 17,7 km/h
19.03.2011 08:00 4,3 C 78 % 1023,7 hPa 0,0 l/m 7,6 km/h W-NW 0,8 C 3,1 C 20,5 km/h
19.03.2011 09:00 4,4 C 77 % 1024,2 hPa 0,0 l/m 10,2 km/h NW 0,7 C 1,3 C 23,3 km/h
19.03.2011 10:00 4,6 C 76 % 1024,7 hPa 0,0 l/m 12,0 km/h N-NW 0,8 C 0,2 C 27,0 km/h
19.03.2011 11:00 5,4 C 70 % 1025,1 hPa 0,0 l/m 11,9 km/h N-NO 0,4 C 1,3 C 27,0 km/h
19.03.2011 12:00 5,6 C 68 % 1025,1 hPa 0,0 l/m 10,7 km/h NW 0,1 C 2,4 C 24,1 km/h
19.03.2011 13:00 6,0 C 67 % 1024,9 hPa 0,0 l/m 12,3 km/h NW 0,4 C 1,8 C 26,2 km/h
19.03.2011 14:00 6,1 C 68 % 1025,0 hPa 0,0 l/m 11,2 km/h NW 0,6 C 2,5 C 23,7 km/h
19.03.2011 15:00 6,3 C 64 % 1025,2 hPa 0,0 l/m 10,9 km/h NW -0,0 C 3,0 C 25,8 km/h
19.03.2011 16:00 6,4 C 65 % 1025,4 hPa 0,0 l/m 9,3 km/h N-NW 0,2 C 4,1 C 22,5 km/h
19.03.2011 17:00 5,9 C 70 % 1026,0 hPa 0,0 l/m 10,5 km/h NW 0,8 C 2,7 C 22,9 km/h
19.03.2011 18:00 5,6 C 72 % 1027,0 hPa 0,0 l/m 8,4 km/h NW 0,9 C 4,0 C 20,5 km/h
19.03.2011 19:00 5,3 C 73 % 1027,8 hPa 0,0 l/m 8,6 km/h NW 0,8 C 3,5 C 20,1 km/h
19.03.2011 20:00 5,1 C 73 % 1028,4 hPa 0,0 l/m 8,7 km/h N-NW 0,7 C 3,2 C 20,5 km/h
19.03.2011 21:00 4,9 C 72 % 1028,8 hPa 0,0 l/m 10,6 km/h NW 0,3 C 1,6 C 21,3 km/h
19.03.2011 22:00 4,6 C 72 % 1029,3 hPa 0,0 l/m 11,9 km/h NW -0,0 C 0,5 C 26,9 km/h
19.03.2011 23:00 4,0 C 72 % 1029,9 hPa 0,0 l/m 9,0 km/h NW -0,6 C 1,7 C 22,1 km/h
20.03.2011 00:00 3,5 C 73 % 1030,2 hPa 0,0 l/m 7,7 km/h NW -1,0 C 2,3 C 18,1 km/h
20.03.2011 01:00 3,1 C 74 % 1030,3 hPa 0,0 l/m 8,4 km/h NW -1,0 C 1,3 C 21,3 km/h
20.03.2011 02:00 2,9 C 74 % 1030,1 hPa 0,0 l/m 6,9 km/h NW -1,2 C 2,5 C 17,7 km/h
20.03.2011 03:00 2,7 C 74 % 1030,1 hPa 0,0 l/m 9,3 km/h W-NW -1,5 C 0,1 C 22,5 km/h
20.03.2011 04:00 2,4 C 73 % 1030,3 hPa 0,0 l/m 8,1 km/h NW -2,0 C 0,8 C 20,1 km/h
20.03.2011 05:00 2,1 C 72 % 1030,5 hPa 0,0 l/m 7,5 km/h NW -2,3 C 1,1 C 18,9 km/h
20.03.2011 06:00 1,9 C 73 % 1031,0 hPa 0,0 l/m 6,4 km/h N-NW -2,5 C 1,7 C 14,9 km/h
20.03.2011 07:00 2,1 C 73 % 1031,5 hPa 0,0 l/m 7,0 km/h NW -2,3 C 1,5 C 17,7 km/h
20.03.2011 08:00 3,6 C 67 % 1031,8 hPa 0,0 l/m 10,4 km/h N-NW -1,8 C 0,4 C 20,9 km/h
20.03.2011 09:00 4,9 C 62 % 1032,0 hPa 0,0 l/m 12,5 km/h NW -1,8 C 0,3 C 25,3 km/h
20.03.2011 10:00 5,8 C 61 % 1031,9 hPa 0,0 l/m 12,1 km/h NO -1,2 C 1,7 C 24,9 km/h
20.03.2011 11:00 6,6 C 58 % 1031,8 hPa 0,0 l/m 13,0 km/h NW -1,2 C 2,1 C 26,1 km/h
20.03.2011 12:00 7,2 C 56 % 1031,7 hPa 0,0 l/m 12,4 km/h NW -0,9 C 3,2 C 27,0 km/h
20.03.2011 13:00 7,5 C 54 % 1031,5 hPa 0,0 l/m 12,5 km/h NW -1,2 C 3,4 C 28,6 km/h
20.03.2011 14:00 7,3 C 55 % 1031,3 hPa 0,0 l/m 10,4 km/h NW -1,2 C 4,3 C 22,9 km/h
20.03.2011 15:00 6,8 C 57 % 1031,1 hPa 0,0 l/m 9,6 km/h NW -1,2 C 4,4 C 21,7 km/h
20.03.2011 16:00 6,6 C 57 % 1031,1 hPa 0,0 l/m 8,8 km/h NW -1,4 C 4,8 C 19,7 km/h
20.03.2011 17:00 6,1 C 58 % 1031,3 hPa 0,0 l/m 6,6 km/h NW -1,5 C 5,7 C 15,7 km/h
20.03.2011 18:00 5,4 C 61 % 1031,8 hPa 0,0 l/m 5,4 km/h NW -1,6 C 5,4 C 12,1 km/h
20.03.2011 19:00 5,2 C 62 % 1032,4 hPa 0,0 l/m 6,3 km/h NW -1,5 C 4,9 C 14,1 km/h
20.03.2011 20:00 5,4 C 63 % 1032,9 hPa 0,0 l/m 5,5 km/h NW -1,1 C 5,4 C 12,9 km/h
20.03.2011 21:00 5,0 C 65 % 1033,1 hPa 0,0 l/m 4,2 km/h N-NW -0,9 C 5,0 C 9,3 km/h
20.03.2011 22:00 4,3 C 68 % 1033,3 hPa 0,0 l/m 2,9 km/h NW -1,1 C 4,3 C 7,2 km/h
20.03.2011 23:00 3,3 C 72 % 1033,5 hPa 0,0 l/m 1,5 km/h NW -1,2 C 3,3 C 4,8 km/h
Min-Datum _ 20.03.11 14.03.11 17.03.11 - 14.03.11 - 20.03.11 18.03.11 14.03.11
_ Min-Zeit 06:30 12:30 13:45 - 05:00 - 06:15 08:00 18:15
Minimum _ 1,8 C 33 % 1000,0 hPa - 0,0 km/h - -2,6 C -1,3 C 0,0 km/h
Max-Datum _ 14.03.11 15.03.11 20.03.11 17.03.11 18.03.11 - 17.03.11 14.03.11 18.03.11
_ Max-Zeit 12:30 07:30 23:00 18:45 05:30 - 14:15 12:30 05:45
Maximum _ 20,2 C 84 % 1033,5 hPa 2,3 l/m 19,3 km/h
W
- 10,0 C 19,9 C 51,5 km/h
W-SW
Durchschnitt _ 8,5 C 72 % 1016,6 hPa #33,3 l/m 5,9 km/h NW 3,5 C 7,1 C 15,3 km/h